HETCH HETCHY (HTH)

Elevation: 3870' · TUOLUMNE R basin · Operator: Hetch Hetchy Water and Power

Provisional data, subject to change.
Query executed Tuesday at 20:59:43   clock

Select a sensor type for a plot of data.
Note: Reservoir Flows are daily averages.

Earlier

Date RES ELE    STORAGE    RES CHG    OUTFLOW    INFLOW    PPT INC    RAIN    PPTINC4   
 FEET   AF   AF   CFS   CFS   INCHES   INCHES   INCHES  
04/06/2015 -- 250717 -- 508 -- 1.02 14.73 0.22
04/07/2015 -- 250544 -- 534 -- 0.00 14.73 0.00
04/08/2015 -- 250544 -- 515 -- 1.16 15.89 0.37
04/09/2015 -- 250544 -- 515 -- 0.00 15.89 0.00
04/10/2015 -- 250544 -- 515 -- 0.00 15.89 0.00
04/11/2015 -- 250717 -- 512 -- 0.00 15.89 0.00
04/12/2015 -- 251063 -- 518 -- 0.00 15.89 0.00
04/13/2015 -- 251409 -- 525 -- 0.00 15.89 0.00
04/14/2015 -- 251928 -- 535 -- 0.00 15.89 0.00
04/15/2015 -- 252274 -- 548 -- 0.00 15.89 0.00
04/16/2015 -- 252101 -- 549 -- 0.00 15.89 0.00
04/17/2015 -- 252101 -- 575 -- 0.00 15.89 0.00
04/18/2015 -- 251928 -- 548 -- 0.00 15.89 0.00
04/19/2015 -- 252101 -- 501 -- 0.00 15.89 0.00
04/20/2015 -- 252477 -- 501 -- 0.00 15.89 0.00
04/21/2015 -- 252477 -- 532 -- 0.00 15.89 0.00
04/22/2015 -- 252620 -- 533 -- 0.00 15.89 0.00
04/23/2015 -- 252966 -- 546 -- 0.10 15.99 0.10
04/24/2015 -- 253312 -- 549 -- 0.46 16.45 0.43
04/25/2015 -- 254004 -- 547 -- 1.10 17.55 0.48
04/26/2015 -- 255046 -- 543 -- 0.17 17.72 0.66
04/27/2015 -- 256438 -- 542 -- 0.00 17.72 0.00
04/28/2015 -- 258355 -- 544 -- 0.00 17.72 0.00
04/29/2015 -- 260280 -- 544 -- 0.00 17.72 0.00
04/30/2015 -- 262205 -- 544 -- 0.00 17.72 0.00
05/01/2015 -- 264136 -- 541 -- 0.00 17.72 0.00
05/02/2015 -- 266248 -- 520 -- 0.00 17.72 0.00
05/03/2015 -- 268193 -- 516 -- 0.00 17.72 0.00
05/04/2015 -- 269963 -- 503 -- 0.00 17.72 0.00
05/05/2015 -- -- -- -- -- -- -- 0.00

Later | Latest

Warning! This data is preliminary and subject to revision.

Show HTH Map | Plot HTH Data | 1 Month HTH Data | Real-Time HTH Data | HTH Info